KCVC

Covington Municipal Airport

Atlanta, Georgia, USA
METAR KCVC 221335Z AUTO 00000KT 10SM CLR 10/06 A3034 RMK AO2 PNO
Observed Flight Rules
Oct-22 @ 13:35 UTC (45 minutes ago) Visual Flight Rules
Visibility Clouds
10 miles
  • Clear skies
Temperatures Readings
Current 10°C / 50°F
Dewpoint 6°C / 43°F
Humidity 76%
Altimeter 30.34" Hg
Pressure 1027 hPa
Elevation 247
METAR KCVC 221335Z AUTO 00000KT 10SM CLR 10/06 A3034 RMK AO2 PNO
Observed Flight Rules
Oct-22 @ 13:35 UTC
(45 minutes ago)
VFR
Clouds
  • Clear skies
Temperature Dewpoint
10°C / 50°F 6°C / 43°F
Humidity Altimeter Pressure
76% 30.34" Hg 1027 hPa